Time;durP1;ratioP1;P1;durP2;ratioP2;P2;SDS_P1;SDS_P2;PMS_P1;PMS_P2;Temp;Humidity;BMP_temperature;BMP_pressure;BME280_temperature;BME280_humidity;BME280_pressure;Samples;Min_cycle;Max_cycle;Signal;HPM_P1;HPM_P2
2022/09/12 00:01:26;;;;;;;19.00;14.00;;;;;;;;;;5072852;28;20032;-68
2022/09/12 00:03:57;;;;;;;20.67;15.52;;;;;;;;;;5071825;28;20432;-68
2022/09/12 00:06:24;;;;;;;19.73;13.38;;;;;;;;;;5050685;28;20533;-67
2022/09/12 00:08:51;;;;;;;15.77;11.10;;;;;;;;;;5055059;28;20503;-68
2022/09/12 00:11:17;;;;;;;15.02;11.95;;;;;;;;;;5071228;28;20068;-67
2022/09/12 00:13:43;;;;;;;14.35;10.68;;;;;;;;;;5067226;28;20116;-68
2022/09/12 00:16:20;;;;;;;16.42;11.27;;;;;;;;;;5044947;28;20048;-67
2022/09/12 00:18:46;;;;;;;13.95;10.68;;;;;;;;;;5071876;28;20037;-67
2022/09/12 00:21:12;;;;;;;16.25;11.75;;;;;;;;;;5054005;28;20041;-67
2022/09/12 00:23:39;;;;;;;19.75;13.80;;;;;;;;;;5040021;28;20131;-67
2022/09/12 00:26:06;;;;;;;16.17;12.80;;;;;;;;;;5070378;28;20047;-67
2022/09/12 00:28:34;;;;;;;16.23;11.45;;;;;;;;;;5060049;28;20420;-67
2022/09/12 00:31:03;;;;;;;20.65;15.18;;;;;;;;;;5071503;28;20374;-68
2022/09/12 00:33:29;;;;;;;19.58;14.75;;;;;;;;;;5071712;28;20056;-67
2022/09/12 00:35:55;;;;;;;19.02;14.75;;;;;;;;;;5053046;28;20033;-67
2022/09/12 00:38:21;;;;;;;23.33;16.15;;;;;;;;;;5072204;28;20043;-67
2022/09/12 00:40:48;;;;;;;21.85;15.70;;;;;;;;;;5057655;28;20040;-67
2022/09/12 00:43:32;;;;;;;23.80;17.42;;;;;;;;;;5053919;28;20049;-67
2022/09/12 00:46:01;;;;;;;20.92;15.77;;;;;;;;;;5071340;28;20163;-67
2022/09/12 00:48:33;;;;;;;18.85;15.02;;;;;;;;;;5070586;28;20485;-67
2022/09/12 00:50:59;;;;;;;24.15;17.83;;;;;;;;;;5071134;28;20091;-67
2022/09/12 00:53:26;;;;;;;25.92;18.05;;;;;;;;;;5071874;28;20043;-67
2022/09/12 00:55:52;;;;;;;26.42;17.38;;;;;;;;;;5070611;28;20032;-67
2022/09/12 00:58:21;;;;;;;21.42;16.08;;;;;;;;;;5070196;28;20032;-67
2022/09/12 01:00:47;;;;;;;26.42;18.17;;;;;;;;;;5070379;28;20060;-67
2022/09/12 01:03:15;;;;;;;26.08;17.90;;;;;;;;;;5071173;28;20468;-67
2022/09/12 01:06:07;;;;;;;23.27;17.58;;;;;;;;;;5071593;28;20048;-72
2022/09/12 01:08:36;;;;;;;25.42;17.92;;;;;;;;;;5024170;28;20072;-72
2022/09/12 01:11:02;;;;;;;26.02;18.45;;;;;;;;;;5052161;28;20049;-72
2022/09/12 01:13:29;;;;;;;19.67;15.00;;;;;;;;;;5050927;28;20032;-73
2022/09/12 01:15:55;;;;;;;20.85;14.98;;;;;;;;;;5051108;28;20094;-73
2022/09/12 01:18:41;;;;;;;23.92;17.25;;;;;;;;;;5050902;28;20044;-72
2022/09/12 01:21:10;;;;;;;24.48;17.38;;;;;;;;;;5052256;28;20041;-72
2022/09/12 01:23:39;;;;;;;23.70;16.42;;;;;;;;;;5051075;28;20060;-73
2022/09/12 01:26:05;;;;;;;25.33;18.13;;;;;;;;;;5050404;28;20040;-67
2022/09/12 01:28:37;;;;;;;29.17;21.67;;;;;;;;;;5055129;28;20044;-72
2022/09/12 01:31:18;;;;;;;31.35;22.27;;;;;;;;;;5061125;28;20076;-72
2022/09/12 01:34:03;;;;;;;35.05;22.48;;;;;;;;;;5052065;28;20608;-72
2022/09/12 01:36:42;;;;;;;30.85;21.92;;;;;;;;;;5051779;28;20179;-67
2022/09/12 01:39:17;;;;;;;32.10;23.55;;;;;;;;;;5043558;28;20059;-67
2022/09/12 01:41:55;;;;;;;32.27;22.43;;;;;;;;;;5071367;28;20037;-67
2022/09/12 01:44:25;;;;;;;31.92;23.17;;;;;;;;;;5044548;28;20524;-67
2022/09/12 01:47:02;;;;;;;30.58;21.73;;;;;;;;;;5070207;28;20508;-67
2022/09/12 01:49:31;;;;;;;34.97;23.83;;;;;;;;;;5049459;28;20401;-67
2022/09/12 01:52:04;;;;;;;41.13;26.52;;;;;;;;;;5073524;28;20049;-67
2022/09/12 01:54:41;;;;;;;42.67;26.98;;;;;;;;;;5048359;28;20514;-67
2022/09/12 01:57:13;;;;;;;39.35;25.73;;;;;;;;;;5089885;28;20052;-67
2022/09/12 01:59:43;;;;;;;34.47;23.73;;;;;;;;;;5073395;28;20056;-67
2022/09/12 02:02:15;;;;;;;36.25;25.48;;;;;;;;;;5074272;28;20041;-67
2022/09/12 02:04:45;;;;;;;37.25;26.70;;;;;;;;;;5047577;28;20435;-67
2022/09/12 02:07:14;;;;;;;41.13;26.63;;;;;;;;;;5055570;28;20045;-67
2022/09/12 02:09:58;;;;;;;42.20;27.73;;;;;;;;;;5055994;28;20049;-67
2022/09/12 02:12:28;;;;;;;39.42;25.92;;;;;;;;;;5073979;28;20040;-67
2022/09/12 02:14:59;;;;;;;48.05;29.15;;;;;;;;;;5060341;28;20098;-68
2022/09/12 02:17:25;;;;;;;46.45;29.02;;;;;;;;;;5074004;28;20063;-68
2022/09/12 02:19:55;;;;;;;37.30;25.70;;;;;;;;;;5073134;28;20520;-67
2022/09/12 02:22:24;;;;;;;46.17;28.13;;;;;;;;;;5072479;28;20061;-67
2022/09/12 02:24:53;;;;;;;45.45;29.75;;;;;;;;;;5073926;28;20512;-67
2022/09/12 02:27:30;;;;;;;42.67;27.50;;;;;;;;;;5055001;28;20044;-67
2022/09/12 02:29:56;;;;;;;43.20;28.50;;;;;;;;;;5068407;28;20045;-67
2022/09/12 02:32:28;;;;;;;41.58;27.30;;;;;;;;;;5072862;28;20598;-68
2022/09/12 02:35:17;;;;;;;47.05;29.30;;;;;;;;;;5072732;28;20116;-68
2022/09/12 02:37:59;;;;;;;45.78;28.77;;;;;;;;;;5068692;28;20040;-68
2022/09/12 02:40:25;;;;;;;45.72;29.52;;;;;;;;;;5072281;28;20114;-68
2022/09/12 02:42:52;;;;;;;44.30;28.85;;;;;;;;;;5072977;28;20044;-68
2022/09/12 02:45:18;;;;;;;47.90;30.40;;;;;;;;;;5071730;28;20044;-68
2022/09/12 02:47:49;;;;;;;47.75;29.95;;;;;;;;;;5073715;28;20044;-68
2022/09/12 02:50:15;;;;;;;51.83;30.42;;;;;;;;;;5071800;28;20052;-68
2022/09/12 02:52:42;;;;;;;45.15;29.83;;;;;;;;;;5073656;28;20032;-69
2022/09/12 02:55:10;;;;;;;53.83;31.38;;;;;;;;;;5072144;28;20051;-68
2022/09/12 02:57:37;;;;;;;48.35;29.85;;;;;;;;;;5055387;28;20095;-68
2022/09/12 03:00:03;;;;;;;47.67;30.10;;;;;;;;;;5071275;28;20052;-68
2022/09/12 03:02:38;;;;;;;50.65;30.45;;;;;;;;;;5055008;28;20048;-68
2022/09/12 03:05:04;;;;;;;52.30;31.42;;;;;;;;;;5073360;28;20481;-68
2022/09/12 03:07:55;;;;;;;50.05;30.58;;;;;;;;;;5071320;28;20048;-68
2022/09/12 03:10:28;;;;;;;51.65;31.30;;;;;;;;;;5071681;28;20504;-68
2022/09/12 03:13:11;;;;;;;49.03;31.42;;;;;;;;;;5055046;28;20036;-69
2022/09/12 03:15:42;;;;;;;48.88;30.77;;;;;;;;;;5077366;28;20044;-73
2022/09/12 03:18:24;;;;;;;50.58;30.98;;;;;;;;;;5057463;28;20120;-73
2022/09/12 03:20:50;;;;;;;46.95;29.30;;;;;;;;;;5054346;28;20068;-73
2022/09/12 03:23:19;;;;;;;48.10;29.27;;;;;;;;;;5054066;28;20444;-73
2022/09/12 03:25:49;;;;;;;45.97;29.73;;;;;;;;;;5054161;28;20036;-72
2022/09/12 03:28:16;;;;;;;51.13;31.13;;;;;;;;;;5054271;28;20041;-72
2022/09/12 03:30:44;;;;;;;50.50;30.08;;;;;;;;;;5035954;28;20044;-73
2022/09/12 03:33:11;;;;;;;47.95;29.83;;;;;;;;;;5053708;28;20517;-68
2022/09/12 03:35:37;;;;;;;49.85;30.40;;;;;;;;;;5070041;28;20236;-68
2022/09/12 03:38:04;;;;;;;50.92;30.23;;;;;;;;;;5072701;28;20448;-68
2022/09/12 03:40:30;;;;;;;50.40;31.25;;;;;;;;;;5054545;28;20088;-73
2022/09/12 03:42:56;;;;;;;53.88;31.88;;;;;;;;;;5052561;28;20469;-72
2022/09/12 03:45:22;;;;;;;49.08;29.63;;;;;;;;;;5053380;28;20064;-73
2022/09/12 03:47:48;;;;;;;55.45;32.10;;;;;;;;;;5052174;28;20037;-73
2022/09/12 03:50:14;;;;;;;55.15;32.97;;;;;;;;;;5052290;28;20044;-73
2022/09/12 03:52:40;;;;;;;56.28;32.50;;;;;;;;;;5035564;28;20127;-73
2022/09/12 03:55:06;;;;;;;49.90;31.13;;;;;;;;;;5052006;28;20036;-73
2022/09/12 03:57:32;;;;;;;53.88;31.25;;;;;;;;;;5053539;28;20060;-73
2022/09/12 03:59:58;;;;;;;53.55;31.58;;;;;;;;;;5051965;28;20053;-73
2022/09/12 04:02:25;;;;;;;54.22;31.67;;;;;;;;;;5052605;28;20445;-73
2022/09/12 04:04:51;;;;;;;56.05;32.60;;;;;;;;;;5051418;28;20060;-73
2022/09/12 04:07:17;;;;;;;56.42;32.42;;;;;;;;;;5052295;28;20037;-73
2022/09/12 04:09:43;;;;;;;51.65;31.60;;;;;;;;;;5037596;28;20461;-73
2022/09/12 04:12:09;;;;;;;56.10;33.45;;;;;;;;;;5050763;28;20045;-73
2022/09/12 04:14:35;;;;;;;56.47;31.95;;;;;;;;;;5052854;28;20056;-73
2022/09/12 04:17:01;;;;;;;58.70;32.22;;;;;;;;;;5068209;28;20052;-73
2022/09/12 04:19:27;;;;;;;54.92;31.92;;;;;;;;;;5052861;28;20052;-72
2022/09/12 04:21:53;;;;;;;58.78;33.38;;;;;;;;;;5051857;28;20032;-73
2022/09/12 04:24:20;;;;;;;57.40;32.42;;;;;;;;;;5053303;28;20131;-68
2022/09/12 04:26:46;;;;;;;62.15;34.13;;;;;;;;;;5066414;28;20044;-68
2022/09/12 04:29:12;;;;;;;60.72;33.70;;;;;;;;;;5062889;28;20040;-68
2022/09/12 04:31:38;;;;;;;63.83;33.42;;;;;;;;;;5053737;28;20514;-68
2022/09/12 04:34:04;;;;;;;58.85;32.45;;;;;;;;;;5072031;28;20037;-69
2022/09/12 04:36:32;;;;;;;61.78;33.63;;;;;;;;;;5059808;28;20143;-73
2022/09/12 04:38:59;;;;;;;60.17;33.95;;;;;;;;;;5053074;28;20049;-73
2022/09/12 04:41:29;;;;;;;65.72;35.80;;;;;;;;;;5051467;28;20055;-73
2022/09/12 04:44:01;;;;;;;56.70;34.38;;;;;;;;;;5035261;28;20102;-73
2022/09/12 04:46:28;;;;;;;65.82;34.58;;;;;;;;;;5052785;28;20366;-73
2022/09/12 04:48:54;;;;;;;66.20;35.20;;;;;;;;;;5051503;28;20095;-73
2022/09/12 04:51:26;;;;;;;62.70;33.78;;;;;;;;;;5051398;28;20045;-73
2022/09/12 04:53:53;;;;;;;62.60;34.88;;;;;;;;;;5051474;28;20045;-73
2022/09/12 04:56:20;;;;;;;64.82;33.75;;;;;;;;;;5059087;28;20119;-73
2022/09/12 04:58:47;;;;;;;64.85;33.80;;;;;;;;;;5056751;28;20057;-72
2022/09/12 05:01:17;;;;;;;60.42;34.22;;;;;;;;;;5058443;28;20123;-73
2022/09/12 05:03:45;;;;;;;67.45;33.83;;;;;;;;;;5059351;28;20470;-74
2022/09/12 05:06:13;;;;;;;64.15;34.33;;;;;;;;;;5050901;28;20048;-72
2022/09/12 05:08:39;;;;;;;62.50;34.08;;;;;;;;;;5052089;28;20151;-73
2022/09/12 05:11:06;;;;;;;64.53;33.42;;;;;;;;;;5034434;28;20037;-73
2022/09/12 05:13:33;;;;;;;64.90;34.35;;;;;;;;;;5050737;28;20040;-73
2022/09/12 05:16:00;;;;;;;63.90;33.40;;;;;;;;;;5034402;28;20045;-73
2022/09/12 05:18:26;;;;;;;63.85;33.10;;;;;;;;;;5052164;28;20029;-73
2022/09/12 05:20:53;;;;;;;64.03;34.92;;;;;;;;;;5051249;28;20045;-73
2022/09/12 05:23:19;;;;;;;64.95;33.17;;;;;;;;;;5053764;28;20045;-73
2022/09/12 05:25:49;;;;;;;59.85;33.97;;;;;;;;;;5054709;28;20056;-72
2022/09/12 05:28:15;;;;;;;52.90;31.92;;;;;;;;;;5056044;28;20048;-73
2022/09/12 05:30:41;;;;;;;55.55;31.65;;;;;;;;;;5054862;28;20505;-73
2022/09/12 05:33:07;;;;;;;51.22;31.45;;;;;;;;;;5054569;28;20124;-73
2022/09/12 05:35:33;;;;;;;49.53;30.25;;;;;;;;;;5056277;28;20037;-73
2022/09/12 05:37:59;;;;;;;51.60;30.70;;;;;;;;;;5055053;28;20206;-73
2022/09/12 05:40:25;;;;;;;46.85;29.50;;;;;;;;;;5058624;28;20516;-73
2022/09/12 05:42:52;;;;;;;47.53;28.90;;;;;;;;;;5074853;28;20102;-73
2022/09/12 05:45:18;;;;;;;48.75;29.42;;;;;;;;;;5059753;28;20486;-73
2022/09/12 05:47:46;;;;;;;47.03;29.23;;;;;;;;;;5054617;28;20370;-73
2022/09/12 05:50:12;;;;;;;48.25;30.23;;;;;;;;;;5054524;28;20490;-73
2022/09/12 05:52:38;;;;;;;45.53;30.05;;;;;;;;;;5041572;28;20033;-73
2022/09/12 05:55:04;;;;;;;46.17;28.50;;;;;;;;;;5043043;28;20042;-73
2022/09/12 05:57:30;;;;;;;53.80;31.13;;;;;;;;;;5051889;28;20091;-73
2022/09/12 05:59:57;;;;;;;50.42;30.38;;;;;;;;;;5055412;28;20083;-73
2022/09/12 06:02:23;;;;;;;52.45;31.67;;;;;;;;;;5035981;28;20521;-73
2022/09/12 06:04:49;;;;;;;49.03;30.75;;;;;;;;;;5054440;28;20394;-74
2022/09/12 06:07:15;;;;;;;54.95;30.92;;;;;;;;;;5054228;28;20076;-72
2022/09/12 06:09:41;;;;;;;53.53;30.70;;;;;;;;;;5067857;28;20081;-73
2022/09/12 06:12:07;;;;;;;52.30;30.98;;;;;;;;;;5054190;28;20044;-74
2022/09/12 06:14:33;;;;;;;54.63;31.45;;;;;;;;;;5054448;28;20041;-73
2022/09/12 06:17:00;;;;;;;56.65;31.85;;;;;;;;;;5055128;28;20037;-74
2022/09/12 06:19:26;;;;;;;55.00;31.10;;;;;;;;;;5037413;28;20037;-74
2022/09/12 06:21:53;;;;;;;56.17;31.75;;;;;;;;;;5053871;28;20504;-69
2022/09/12 06:24:20;;;;;;;56.80;31.90;;;;;;;;;;5063610;28;20057;-69
2022/09/12 06:26:46;;;;;;;55.50;31.70;;;;;;;;;;5072353;28;20142;-72
2022/09/12 06:29:13;;;;;;;55.78;32.10;;;;;;;;;;5073666;28;20037;-73
2022/09/12 06:31:40;;;;;;;59.88;32.65;;;;;;;;;;5059193;28;20055;-73
2022/09/12 06:34:07;;;;;;;57.28;31.52;;;;;;;;;;5053839;28;20043;-73
2022/09/12 06:36:37;;;;;;;57.00;32.08;;;;;;;;;;5053731;28;20047;-74
2022/09/12 06:39:05;;;;;;;60.72;32.92;;;;;;;;;;5053758;28;20041;-74
2022/09/12 06:41:32;;;;;;;58.35;32.72;;;;;;;;;;5053660;28;20048;-74
2022/09/12 06:43:58;;;;;;;65.15;33.47;;;;;;;;;;5037076;28;20394;-74
2022/09/12 06:46:25;;;;;;;58.22;33.17;;;;;;;;;;5053864;28;20413;-74
2022/09/12 06:48:51;;;;;;;60.60;33.13;;;;;;;;;;5054485;28;20098;-74
2022/09/12 06:51:18;;;;;;;58.88;32.83;;;;;;;;;;5053413;28;20091;-74
2022/09/12 06:53:45;;;;;;;62.92;33.92;;;;;;;;;;5054651;28;20068;-74
2022/09/12 06:56:13;;;;;;;62.53;33.58;;;;;;;;;;5037027;28;20560;-74
2022/09/12 06:58:39;;;;;;;62.75;33.92;;;;;;;;;;5053298;28;20041;-74
2022/09/12 07:01:08;;;;;;;65.00;33.25;;;;;;;;;;5053338;28;20051;-74
2022/09/12 07:03:35;;;;;;;60.47;33.47;;;;;;;;;;5036626;28;20170;-74
2022/09/12 07:06:02;;;;;;;61.72;33.15;;;;;;;;;;5054336;28;20052;-74
2022/09/12 07:08:30;;;;;;;64.60;34.22;;;;;;;;;;5054614;28;20037;-74
2022/09/12 07:10:57;;;;;;;65.25;33.13;;;;;;;;;;5052825;28;20505;-74
2022/09/12 07:13:24;;;;;;;67.05;34.08;;;;;;;;;;5052898;28;20136;-74
2022/09/12 07:15:50;;;;;;;64.10;34.80;;;;;;;;;;5052777;28;20072;-74
2022/09/12 07:18:17;;;;;;;60.67;33.47;;;;;;;;;;5069814;28;20033;-74
2022/09/12 07:20:43;;;;;;;65.80;34.40;;;;;;;;;;5052928;28;20080;-74
2022/09/12 07:23:10;;;;;;;63.55;35.65;;;;;;;;;;5033890;28;20520;-74
2022/09/12 07:25:36;;;;;;;66.63;35.10;;;;;;;;;;5052673;28;20044;-74
2022/09/12 07:28:02;;;;;;;62.53;35.33;;;;;;;;;;5052896;28;20045;-74
2022/09/12 07:30:28;;;;;;;62.65;35.13;;;;;;;;;;5052481;28;20049;-74
2022/09/12 07:32:54;;;;;;;65.85;35.92;;;;;;;;;;5051813;28;20116;-70
2022/09/12 07:35:21;;;;;;;69.70;35.58;;;;;;;;;;5069634;28;20048;-70
2022/09/12 07:37:47;;;;;;;69.47;36.95;;;;;;;;;;5071614;28;20032;-69
2022/09/12 07:40:13;;;;;;;68.80;35.30;;;;;;;;;;5071827;28;20444;-75
2022/09/12 07:42:39;;;;;;;67.60;35.47;;;;;;;;;;5048801;28;20037;-75
2022/09/12 07:45:06;;;;;;;67.30;36.25;;;;;;;;;;5050500;28;20086;-69
2022/09/12 07:47:32;;;;;;;65.53;35.95;;;;;;;;;;5071080;28;20504;-69
2022/09/12 07:49:58;;;;;;;65.05;36.63;;;;;;;;;;5054381;28;20397;-69
2022/09/12 07:52:24;;;;;;;64.78;35.83;;;;;;;;;;5071192;28;20037;-74
2022/09/12 07:54:51;;;;;;;63.50;34.22;;;;;;;;;;5070936;28;20040;-70
2022/09/12 07:57:17;;;;;;;58.13;33.53;;;;;;;;;;5071423;28;20040;-70
2022/09/12 07:59:43;;;;;;;60.83;34.30;;;;;;;;;;5071241;28;20060;-69
2022/09/12 08:02:12;;;;;;;59.40;34.25;;;;;;;;;;5072038;28;20044;-70
2022/09/12 08:04:38;;;;;;;59.50;33.88;;;;;;;;;;5043694;28;20044;-69
2022/09/12 08:07:05;;;;;;;59.60;33.38;;;;;;;;;;5054453;28;20028;-70
2022/09/12 08:09:31;;;;;;;59.85;34.75;;;;;;;;;;5070928;28;20511;-69
2022/09/12 08:11:57;;;;;;;56.80;33.92;;;;;;;;;;5054186;28;20090;-70
2022/09/12 08:14:24;;;;;;;61.42;33.90;;;;;;;;;;5041735;28;20123;-71
2022/09/12 08:16:50;;;;;;;65.82;34.65;;;;;;;;;;5070820;28;20121;-69
2022/09/12 08:19:16;;;;;;;62.67;35.65;;;;;;;;;;5054086;28;20125;-70
2022/09/12 08:21:42;;;;;;;58.03;33.33;;;;;;;;;;5071127;28;20512;-69
2022/09/12 08:24:11;;;;;;;59.92;33.97;;;;;;;;;;5071804;28;20036;-69
2022/09/12 08:26:37;;;;;;;61.83;33.15;;;;;;;;;;5070957;28;20500;-70
2022/09/12 08:29:03;;;;;;;61.67;33.78;;;;;;;;;;5064043;28;20064;-69
2022/09/12 08:31:35;;;;;;;63.03;34.88;;;;;;;;;;5057375;28;20169;-70
2022/09/12 08:34:02;;;;;;;59.08;34.17;;;;;;;;;;5044200;28;20036;-70
2022/09/12 08:36:28;;;;;;;57.35;33.35;;;;;;;;;;5054131;28;20044;-70
2022/09/12 08:38:56;;;;;;;57.70;33.85;;;;;;;;;;5054832;28;20398;-76
2022/09/12 08:41:23;;;;;;;57.47;32.40;;;;;;;;;;5072080;28;20044;-71
2022/09/12 08:44:08;;;;;;;54.22;32.45;;;;;;;;;;5070597;28;20048;-70
2022/09/12 08:46:40;;;;;;;55.22;30.58;;;;;;;;;;5070838;28;20079;-70
2022/09/12 08:49:08;;;;;;;54.65;30.70;;;;;;;;;;5067121;28;20106;-70
2022/09/12 08:51:35;;;;;;;54.70;30.48;;;;;;;;;;5061210;28;20043;-71
2022/09/12 08:54:02;;;;;;;55.88;30.98;;;;;;;;;;5039700;28;20041;-71
2022/09/12 08:56:30;;;;;;;52.17;30.60;;;;;;;;;;5070506;28;20068;-70
2022/09/12 08:58:56;;;;;;;51.05;30.60;;;;;;;;;;5074009;28;20130;-70
2022/09/12 09:01:34;;;;;;;51.72;31.45;;;;;;;;;;5074092;28;20051;-70
2022/09/12 09:04:16;;;;;;;45.70;27.63;;;;;;;;;;5074454;28;20443;-70
2022/09/12 09:07:02;;;;;;;45.50;28.38;;;;;;;;;;5075869;28;20563;-71
2022/09/12 09:09:41;;;;;;;47.42;28.92;;;;;;;;;;5071140;28;20107;-77
2022/09/12 09:12:10;;;;;;;47.30;29.83;;;;;;;;;;5054914;28;20051;-77
2022/09/12 09:14:48;;;;;;;48.85;28.75;;;;;;;;;;5074323;28;20485;-76
2022/09/12 09:17:34;;;;;;;47.58;28.77;;;;;;;;;;5074315;28;20124;-77
2022/09/12 09:20:03;;;;;;;52.55;28.90;;;;;;;;;;5073853;28;20048;-77
2022/09/12 09:22:40;;;;;;;45.05;27.30;;;;;;;;;;5074392;28;20068;-75
2022/09/12 09:25:21;;;;;;;42.85;27.27;;;;;;;;;;5076246;28;20044;-78
2022/09/12 09:27:53;;;;;;;40.20;26.33;;;;;;;;;;5070825;28;20549;-78
2022/09/12 09:30:20;;;;;;;41.08;27.42;;;;;;;;;;5054819;28;20048;-77
2022/09/12 09:32:50;;;;;;;39.05;26.77;;;;;;;;;;5057817;28;20059;-78
2022/09/12 09:35:16;;;;;;;38.28;26.42;;;;;;;;;;5071728;28;20386;-78
2022/09/12 09:37:43;;;;;;;38.78;25.85;;;;;;;;;;5063046;28;20435;-78
2022/09/12 09:40:23;;;;;;;40.72;25.95;;;;;;;;;;5061109;28;20041;-78
2022/09/12 09:42:52;;;;;;;36.65;25.17;;;;;;;;;;5063736;28;20084;-78
2022/09/12 09:45:23;;;;;;;39.05;27.25;;;;;;;;;;5056407;28;20047;-72
2022/09/12 09:47:53;;;;;;;36.30;24.98;;;;;;;;;;5073636;28;20136;-73
2022/09/12 09:50:19;;;;;;;35.63;23.95;;;;;;;;;;5073241;28;20131;-71
2022/09/12 09:52:46;;;;;;;33.60;23.73;;;;;;;;;;5056986;28;20064;-72
2022/09/12 09:55:24;;;;;;;33.58;22.80;;;;;;;;;;5074341;28;20146;-72
2022/09/12 09:57:52;;;;;;;36.33;24.95;;;;;;;;;;5056677;28;20041;-72
2022/09/12 10:00:26;;;;;;;33.95;24.95;;;;;;;;;;5073146;28;20131;-72
2022/09/12 10:03:13;;;;;;;38.58;25.75;;;;;;;;;;5073209;28;20040;-72
2022/09/12 10:05:50;;;;;;;35.40;25.48;;;;;;;;;;5073695;28;20374;-73
2022/09/12 10:08:42;;;;;;;34.70;24.90;;;;;;;;;;5072733;28;20048;-72
2022/09/12 10:11:14;;;;;;;34.00;24.80;;;;;;;;;;5070147;28;20550;-72
2022/09/12 10:13:40;;;;;;;34.50;23.52;;;;;;;;;;5066683;28;20045;-72
2022/09/12 10:16:18;;;;;;;34.10;23.65;;;;;;;;;;5066928;28;20040;-73
2022/09/12 10:18:44;;;;;;;29.23;20.88;;;;;;;;;;5073061;28;20040;-72
2022/09/12 10:21:30;;;;;;;27.63;21.25;;;;;;;;;;5072908;28;20045;-73
2022/09/12 10:24:23;;;;;;;27.45;20.48;;;;;;;;;;5073454;28;20040;-72
2022/09/12 10:26:57;;;;;;;27.75;20.15;;;;;;;;;;5074384;28;20037;-73
2022/09/12 10:29:31;;;;;;;26.95;19.83;;;;;;;;;;5064858;28;20040;-80
2022/09/12 10:31:59;;;;;;;29.10;21.75;;;;;;;;;;5073321;28;20116;-79
2022/09/12 10:34:26;;;;;;;29.17;21.45;;;;;;;;;;5072719;28;20371;-73
2022/09/12 10:36:54;;;;;;;31.88;20.90;;;;;;;;;;5073196;28;20568;-73
2022/09/12 10:39:21;;;;;;;24.77;19.35;;;;;;;;;;5072819;28;20493;-79
2022/09/12 10:41:47;;;;;;;26.17;20.55;;;;;;;;;;5074019;28;20056;-80
2022/09/12 10:44:18;;;;;;;25.05;18.50;;;;;;;;;;5058515;28;20051;-80
2022/09/12 10:46:45;;;;;;;24.98;17.58;;;;;;;;;;5073055;28;20098;-73
2022/09/12 10:49:12;;;;;;;20.88;16.17;;;;;;;;;;5072066;28;20040;-73
2022/09/12 10:51:38;;;;;;;19.17;14.20;;;;;;;;;;5072717;28;20393;-73
2022/09/12 10:54:07;;;;;;;20.17;14.82;;;;;;;;;;5072388;28;20145;-73
2022/09/12 10:56:48;;;;;;;20.50;15.05;;;;;;;;;;5072026;28;20396;-73
2022/09/12 10:59:18;;;;;;;19.65;13.82;;;;;;;;;;5055144;28;20544;-73
2022/09/12 11:01:46;;;;;;;19.17;14.27;;;;;;;;;;5072378;28;20052;-72
2022/09/12 11:04:12;;;;;;;18.73;14.13;;;;;;;;;;5071929;28;20055;-73
2022/09/12 11:06:58;;;;;;;17.98;13.40;;;;;;;;;;5072480;28;20044;-73
2022/09/12 11:09:30;;;;;;;17.35;13.43;;;;;;;;;;5051311;28;20047;-72
2022/09/12 11:11:59;;;;;;;16.90;13.05;;;;;;;;;;5071969;28;20481;-72
2022/09/12 11:14:55;;;;;;;17.20;12.80;;;;;;;;;;5041904;28;20049;-72
2022/09/12 11:17:21;;;;;;;;;;;;;;;;;;5052355;28;20045;-78
2022/09/12 11:19:48;;;;;;;18.48;13.63;;;;;;;;;;5070579;28;19943;-79
2022/09/12 11:22:34;;;;;;;19.23;12.98;;;;;;;;;;5071675;28;20052;-79
2022/09/12 11:25:10;;;;;;;18.25;13.55;;;;;;;;;;5071503;28;20587;-72
2022/09/12 11:27:46;;;;;;;18.55;13.52;;;;;;;;;;5068184;28;20033;-72
2022/09/12 11:30:15;;;;;;;17.02;13.15;;;;;;;;;;5069750;28;20086;-71
2022/09/12 11:32:44;;;;;;;17.70;12.68;;;;;;;;;;5055096;28;20036;-72
2022/09/12 11:35:30;;;;;;;16.75;12.52;;;;;;;;;;5071328;28;20048;-72
2022/09/12 11:38:07;;;;;;;20.63;13.55;;;;;;;;;;5054890;28;20043;-70
2022/09/12 11:40:36;;;;;;;21.05;13.88;;;;;;;;;;5070988;28;20049;-71
2022/09/12 11:43:10;;;;;;;16.60;12.00;;;;;;;;;;5071971;28;20563;-72
2022/09/12 11:45:42;;;;;;;14.13;10.60;;;;;;;;;;5070960;28;20048;-72
2022/09/12 11:48:12;;;;;;;12.55;9.77;;;;;;;;;;5072683;28;20040;-71
2022/09/12 11:50:38;;;;;;;11.52;9.07;;;;;;;;;;5070730;28;20037;-71
2022/09/12 11:53:11;;;;;;;11.85;7.30;;;;;;;;;;5071865;28;20393;-71
2022/09/12 11:55:54;;;;;;;11.30;8.30;;;;;;;;;;5054202;28;20036;-72
2022/09/12 11:58:24;;;;;;;8.02;5.72;;;;;;;;;;5071210;28;20078;-71
2022/09/12 12:00:52;;;;;;;7.97;4.90;;;;;;;;;;5070679;28;20067;-71
2022/09/12 12:03:34;;;;;;;6.93;5.10;;;;;;;;;;5071093;28;20099;-77
2022/09/12 12:06:05;;;;;;;8.10;5.57;;;;;;;;;;5070879;28;20052;-78
2022/09/12 12:08:36;;;;;;;8.82;5.70;;;;;;;;;;5070872;28;20049;-76
2022/09/12 12:11:03;;;;;;;7.80;5.40;;;;;;;;;;5087991;28;20102;-78
2022/09/12 12:13:31;;;;;;;7.63;5.25;;;;;;;;;;5065512;28;20029;-71
2022/09/12 12:16:13;;;;;;;8.55;5.63;;;;;;;;;;5062300;28;20071;-71
2022/09/12 12:18:39;;;;;;;7.95;6.00;;;;;;;;;;5087178;28;20040;-71
2022/09/12 12:21:17;;;;;;;8.20;5.80;;;;;;;;;;5072328;28;20485;-71
2022/09/12 12:24:02;;;;;;;6.22;4.82;;;;;;;;;;5071771;28;20074;-71
2022/09/12 12:26:41;;;;;;;8.23;4.60;;;;;;;;;;5056693;28;20036;-72
2022/09/12 12:29:16;;;;;;;7.53;4.82;;;;;;;;;;5054024;28;20041;-71
2022/09/12 12:32:03;;;;;;;6.18;4.60;;;;;;;;;;5069793;28;20054;-72
2022/09/12 12:34:31;;;;;;;6.40;4.53;;;;;;;;;;5070132;28;20125;-71
2022/09/12 12:36:58;;;;;;;10.98;5.97;;;;;;;;;;5071788;28;20040;-71
2022/09/12 12:39:33;;;;;;;7.22;5.43;;;;;;;;;;5070700;28;20047;-70
2022/09/12 12:42:00;;;;;;;6.63;4.90;;;;;;;;;;5070900;28;20488;-71
2022/09/12 12:44:46;;;;;;;9.57;5.43;;;;;;;;;;5053662;28;20086;-70
2022/09/12 12:47:38;;;;;;;7.32;5.75;;;;;;;;;;5054107;28;20512;-71
2022/09/12 12:50:07;;;;;;;8.32;5.50;;;;;;;;;;5068752;28;20425;-71
2022/09/12 12:52:45;;;;;;;7.05;4.82;;;;;;;;;;5053423;28;20068;-71
2022/09/12 12:55:21;;;;;;;6.97;5.13;;;;;;;;;;5070721;28;20076;-70
2022/09/12 12:57:47;;;;;;;6.15;4.10;;;;;;;;;;5070989;28;20037;-70
2022/09/12 13:00:19;;;;;;;7.25;5.40;;;;;;;;;;5053329;28;20191;-71
2022/09/12 13:02:51;;;;;;;8.10;4.80;;;;;;;;;;5070001;28;20378;-71
2022/09/12 13:05:20;;;;;;;6.80;4.60;;;;;;;;;;5070352;28;20036;-71
2022/09/12 13:07:52;;;;;;;7.00;5.00;;;;;;;;;;5069839;28;20036;-71
2022/09/12 13:10:22;;;;;;;7.97;4.35;;;;;;;;;;5054003;28;20500;-70
2022/09/12 13:12:49;;;;;;;7.07;4.40;;;;;;;;;;5070064;28;20044;-69
2022/09/12 13:15:33;;;;;;;5.68;4.70;;;;;;;;;;5033908;28;20132;-70
2022/09/12 13:18:05;;;;;;;8.00;4.93;;;;;;;;;;5065882;28;20087;-70
2022/09/12 13:20:37;;;;;;;6.63;5.07;;;;;;;;;;5071177;28;20508;-71
2022/09/12 13:23:03;;;;;;;7.78;4.60;;;;;;;;;;5070262;28;20143;-70
2022/09/12 13:25:31;;;;;;;7.95;5.18;;;;;;;;;;5069477;28;20276;-70
2022/09/12 13:27:57;;;;;;;7.43;4.88;;;;;;;;;;5047747;28;20124;-70
2022/09/12 13:30:24;;;;;;;6.78;5.43;;;;;;;;;;5068423;28;20040;-70
2022/09/12 13:32:50;;;;;;;7.82;5.53;;;;;;;;;;5053585;28;20131;-70
2022/09/12 13:35:25;;;;;;;9.02;5.15;;;;;;;;;;5070283;28;20485;-70
2022/09/12 13:37:51;;;;;;;;;;;;;;;;;;5071428;28;20059;-70
2022/09/12 13:40:38;;;;;;;6.20;4.28;;;;;;;;;;5070003;28;19917;-70
2022/09/12 13:43:08;;;;;;;7.82;4.45;;;;;;;;;;5072004;28;20045;-76
2022/09/12 13:45:38;;;;;;;5.63;3.97;;;;;;;;;;5073830;28;20374;-78
2022/09/12 13:48:06;;;;;;;5.65;4.50;;;;;;;;;;5074615;28;20047;-74
2022/09/12 13:50:36;;;;;;;6.90;4.75;;;;;;;;;;5073232;28;20105;-77
2022/09/12 13:53:10;;;;;;;9.30;4.90;;;;;;;;;;5073794;28;20037;-76
2022/09/12 13:55:38;;;;;;;6.07;4.28;;;;;;;;;;5073425;28;20047;-77
2022/09/12 13:58:06;;;;;;;7.13;4.53;;;;;;;;;;5074920;28;20064;-77
2022/09/12 14:00:33;;;;;;;7.20;4.00;;;;;;;;;;5073111;28;20098;-76
2022/09/12 14:05:56;;;;;;;6.30;4.47;;;;;;;;;;5054131;28;20237;-76
2022/09/12 14:08:29;;;;;;;9.15;4.88;;;;;;;;;;5073688;28;20086;-77
2022/09/12 14:10:55;;;;;;;6.35;4.22;;;;;;;;;;5056594;28;20102;-76
2022/09/12 14:13:23;;;;;;;7.00;4.43;;;;;;;;;;5069340;28;20073;-75
2022/09/12 14:15:51;;;;;;;6.75;5.40;;;;;;;;;;5063436;28;20072;-76
2022/09/12 14:18:27;;;;;;;10.63;4.07;;;;;;;;;;5073464;28;20492;-76
2022/09/12 14:20:56;;;;;;;5.82;4.30;;;;;;;;;;5074123;28;20072;-77
2022/09/12 14:23:32;;;;;;;8.63;4.60;;;;;;;;;;5073370;28;20071;-76
2022/09/12 14:26:01;;;;;;;7.35;5.03;;;;;;;;;;5073009;28;20044;-76
2022/09/12 14:28:29;;;;;;;6.28;4.60;;;;;;;;;;5048854;28;20048;-76
2022/09/12 14:31:01;;;;;;;6.57;4.30;;;;;;;;;;5056061;28;20036;-76
2022/09/12 14:33:27;;;;;;;7.03;3.92;;;;;;;;;;5056570;28;20072;-76
2022/09/12 14:36:12;;;;;;;7.13;3.85;;;;;;;;;;5073811;28;20048;-76
2022/09/12 14:38:46;;;;;;;6.63;4.07;;;;;;;;;;5072103;28;20110;-76
2022/09/12 14:41:14;;;;;;;6.18;3.63;;;;;;;;;;5055748;28;20279;-76
2022/09/12 14:43:44;;;;;;;6.43;4.18;;;;;;;;;;5072099;28;20048;-76